Etusivu
METAR-TAF:

METAR-TAF

Lentoasemat :

Mafikeng, Etelä-Afrikka

Leveyspiiri: 25-47S, Pituuspiiri: 025-32E, korkeus merenpinnasta: 1281 m

Tämänhetkinen sää

Tämä raportti tehtiin 10 minuuttia sitten, kello 03.00 UTC
Tuuli 6 kn pohjoisesta/koillisesta
Lämpötila 17°C
Kosteus 59%
Ilmanpaine 1025 hPa

METAR: FAMM 170300Z AUTO 03006KT //// // ////// 17/09 Q1025

Aika: 05:10 (03:10 UTC)

Sääennuste

Tämä raportti tehtiin 18 tuntia ja 10 minuuttia sitten, kello 09.00 UTC
Ennuste voimassa 16. päivästä klo 10 UTC - 16. päivään klo 18 UTC
Tuuli 10 kn koillisesta
Näkyvyys 10 km tai enemmän
ei pilviä alle 1500 m:ssä eikä cumulonimbus-pilviä
Todennäköisyys 30% :
Ajoittain
16. päivästä klo 14 UTC - 16. päivään klo 16 UTC
Muutamia pilviä 5000 ft:n korkeudessa, Kasvava cumulus-pilvi.

TAF: FAMM 160900Z 1610/1618 04010KT CAVOK TX35/1613Z TN20/1618Z PROB30 TEMPO 1614/1616 FEW050TCU

Säähavainnot ja -ennusteet yli 4000 lentoasemalta (METAR- ja TAF-raportit).

Käytössä olevat sääasemat on merkitty karttaan keltaisilla ja punaisilla pisteillä.

Aseta hiiri pisteen päälle nähdäksesi sääaseman nimen.

Klikkaa sitten nähdäksesi säähavainnot ja -ennusteet.

Kartan vaihtaminen: klikkaa mustalla rastilla varustettuja vihreitä pisteitä, niin voit zoomata sisään; viivalla varustettua vihreää pistettä, niin voit zoomata ulos tai vihreitä nuolia, niin pääset viereisille kartoille.


METAR-TAF: